sensor_id;sensor_type;location;lat;lon;timestamp;P1;durP1;ratioP1;P2;durP2;ratioP2
44664;SDS011;30382;48.802;9.388;2022-08-19T00:01:34;14.47;;;13.27;;
44664;SDS011;30382;48.802;9.388;2022-08-19T00:04:24;15.37;;;13.87;;
44664;SDS011;30382;48.802;9.388;2022-08-19T00:07:09;15.77;;;14.07;;
44664;SDS011;30382;48.802;9.388;2022-08-19T00:09:53;14.47;;;13.17;;
44664;SDS011;30382;48.802;9.388;2022-08-19T00:12:38;15.30;;;13.90;;
44664;SDS011;30382;48.802;9.388;2022-08-19T00:15:22;14.60;;;13.30;;
44664;SDS011;30382;48.802;9.388;2022-08-19T00:18:07;15.90;;;14.40;;
44664;SDS011;30382;48.802;9.388;2022-08-19T00:20:51;14.60;;;13.40;;
44664;SDS011;30382;48.802;9.388;2022-08-19T00:23:36;15.83;;;14.33;;
44664;SDS011;30382;48.802;9.388;2022-08-19T00:26:21;14.53;;;13.23;;
44664;SDS011;30382;48.802;9.388;2022-08-19T00:29:06;13.60;;;12.50;;
44664;SDS011;30382;48.802;9.388;2022-08-19T00:31:51;15.90;;;14.40;;
44664;SDS011;30382;48.802;9.388;2022-08-19T00:34:38;14.57;;;13.23;;
44664;SDS011;30382;48.802;9.388;2022-08-19T00:37:23;16.63;;;15.03;;
44664;SDS011;30382;48.802;9.388;2022-08-19T00:40:07;15.30;;;13.90;;
44664;SDS011;30382;48.802;9.388;2022-08-19T00:42:52;15.53;;;13.90;;
44664;SDS011;30382;48.802;9.388;2022-08-19T00:45:37;16.93;;;15.23;;
44664;SDS011;30382;48.802;9.388;2022-08-19T00:48:21;16.30;;;14.83;;
44664;SDS011;30382;48.802;9.388;2022-08-19T00:51:07;16.77;;;15.23;;
44664;SDS011;30382;48.802;9.388;2022-08-19T00:53:53;16.60;;;15.10;;
44664;SDS011;30382;48.802;9.388;2022-08-19T00:56:38;15.90;;;14.30;;
44664;SDS011;30382;48.802;9.388;2022-08-19T00:59:22;16.87;;;15.03;;
44664;SDS011;30382;48.802;9.388;2022-08-19T01:02:07;16.90;;;15.30;;
44664;SDS011;30382;48.802;9.388;2022-08-19T01:04:51;16.27;;;14.60;;
44664;SDS011;30382;48.802;9.388;2022-08-19T01:07:36;16.07;;;14.00;;
44664;SDS011;30382;48.802;9.388;2022-08-19T01:10:23;15.43;;;14.13;;
44664;SDS011;30382;48.802;9.388;2022-08-19T01:13:08;16.47;;;15.00;;
44664;SDS011;30382;48.802;9.388;2022-08-19T01:15:54;17.07;;;15.50;;
44664;SDS011;30382;48.802;9.388;2022-08-19T01:18:39;16.87;;;15.10;;
44664;SDS011;30382;48.802;9.388;2022-08-19T01:21:26;16.20;;;14.70;;
44664;SDS011;30382;48.802;9.388;2022-08-19T01:24:12;15.00;;;13.70;;
44664;SDS011;30382;48.802;9.388;2022-08-19T01:26:57;15.87;;;14.23;;
44664;SDS011;30382;48.802;9.388;2022-08-19T01:29:42;16.30;;;14.80;;
44664;SDS011;30382;48.802;9.388;2022-08-19T01:32:27;15.73;;;13.57;;
44664;SDS011;30382;48.802;9.388;2022-08-19T01:35:12;16.57;;;15.07;;
44664;SDS011;30382;48.802;9.388;2022-08-19T01:37:58;16.73;;;14.90;;
44664;SDS011;30382;48.802;9.388;2022-08-19T01:40:43;15.83;;;14.37;;
44664;SDS011;30382;48.802;9.388;2022-08-19T01:43:27;16.40;;;14.80;;
44664;SDS011;30382;48.802;9.388;2022-08-19T01:46:11;16.27;;;14.60;;
44664;SDS011;30382;48.802;9.388;2022-08-19T01:48:55;14.53;;;13.23;;
44664;SDS011;30382;48.802;9.388;2022-08-19T01:51:40;16.67;;;15.17;;
44664;SDS011;30382;48.802;9.388;2022-08-19T01:54:24;15.47;;;13.97;;
44664;SDS011;30382;48.802;9.388;2022-08-19T01:57:10;15.90;;;14.27;;
44664;SDS011;30382;48.802;9.388;2022-08-19T01:59:55;16.20;;;14.70;;
44664;SDS011;30382;48.802;9.388;2022-08-19T02:02:41;16.10;;;14.60;;
44664;SDS011;30382;48.802;9.388;2022-08-19T02:05:25;16.93;;;15.20;;
44664;SDS011;30382;48.802;9.388;2022-08-19T02:08:10;16.70;;;15.10;;
44664;SDS011;30382;48.802;9.388;2022-08-19T02:10:54;15.33;;;13.93;;
44664;SDS011;30382;48.802;9.388;2022-08-19T02:13:39;16.57;;;15.07;;
44664;SDS011;30382;48.802;9.388;2022-08-19T02:16:23;16.13;;;14.50;;
44664;SDS011;30382;48.802;9.388;2022-08-19T02:19:07;16.30;;;14.67;;
44664;SDS011;30382;48.802;9.388;2022-08-19T02:21:52;17.97;;;15.13;;
44664;SDS011;30382;48.802;9.388;2022-08-19T02:24:36;17.93;;;16.13;;
44664;SDS011;30382;48.802;9.388;2022-08-19T02:27:21;16.03;;;14.43;;
44664;SDS011;30382;48.802;9.388;2022-08-19T02:30:05;16.90;;;14.93;;
44664;SDS011;30382;48.802;9.388;2022-08-19T02:32:50;17.60;;;15.90;;
44664;SDS011;30382;48.802;9.388;2022-08-19T02:35:35;16.80;;;15.20;;
44664;SDS011;30382;48.802;9.388;2022-08-19T02:38:19;15.90;;;14.30;;
44664;SDS011;30382;48.802;9.388;2022-08-19T02:41:17;18.00;;;16.13;;
44664;SDS011;30382;48.802;9.388;2022-08-19T02:44:02;17.40;;;15.60;;
44664;SDS011;30382;48.802;9.388;2022-08-19T02:46:48;16.97;;;15.27;;
44664;SDS011;30382;48.802;9.388;2022-08-19T02:49:34;17.63;;;16.00;;
44664;SDS011;30382;48.802;9.388;2022-08-19T02:52:18;18.37;;;16.43;;
44664;SDS011;30382;48.802;9.388;2022-08-19T02:55:02;17.37;;;15.67;;
44664;SDS011;30382;48.802;9.388;2022-08-19T02:57:47;17.47;;;15.70;;
44664;SDS011;30382;48.802;9.388;2022-08-19T03:00:31;17.47;;;15.67;;
44664;SDS011;30382;48.802;9.388;2022-08-19T03:03:16;17.60;;;15.97;;
44664;SDS011;30382;48.802;9.388;2022-08-19T03:06:08;19.03;;;17.13;;
44664;SDS011;30382;48.802;9.388;2022-08-19T03:08:52;17.80;;;15.90;;
44664;SDS011;30382;48.802;9.388;2022-08-19T03:11:37;18.57;;;16.60;;
44664;SDS011;30382;48.802;9.388;2022-08-19T03:14:22;19.00;;;16.77;;
44664;SDS011;30382;48.802;9.388;2022-08-19T03:17:07;19.50;;;16.80;;
44664;SDS011;30382;48.802;9.388;2022-08-19T03:19:52;19.80;;;17.13;;
44664;SDS011;30382;48.802;9.388;2022-08-19T03:22:36;22.70;;;18.60;;
44664;SDS011;30382;48.802;9.388;2022-08-19T03:25:21;19.50;;;16.83;;
44664;SDS011;30382;48.802;9.388;2022-08-19T03:28:05;19.97;;;17.87;;
44664;SDS011;30382;48.802;9.388;2022-08-19T03:30:56;19.70;;;17.10;;
44664;SDS011;30382;48.802;9.388;2022-08-19T03:33:41;19.83;;;17.70;;
44664;SDS011;30382;48.802;9.388;2022-08-19T03:36:26;21.10;;;18.67;;
44664;SDS011;30382;48.802;9.388;2022-08-19T03:39:11;20.50;;;18.40;;
44664;SDS011;30382;48.802;9.388;2022-08-19T03:41:55;21.80;;;18.87;;
44664;SDS011;30382;48.802;9.388;2022-08-19T03:44:46;19.43;;;17.47;;
44664;SDS011;30382;48.802;9.388;2022-08-19T03:47:31;25.30;;;18.73;;
44664;SDS011;30382;48.802;9.388;2022-08-19T03:50:15;19.00;;;17.13;;
44664;SDS011;30382;48.802;9.388;2022-08-19T03:53:00;21.40;;;19.20;;
44664;SDS011;30382;48.802;9.388;2022-08-19T03:55:44;20.07;;;17.90;;
44664;SDS011;30382;48.802;9.388;2022-08-19T03:58:29;20.73;;;18.63;;
44664;SDS011;30382;48.802;9.388;2022-08-19T04:01:15;20.73;;;18.53;;
44664;SDS011;30382;48.802;9.388;2022-08-19T04:04:00;20.70;;;18.70;;
44664;SDS011;30382;48.802;9.388;2022-08-19T04:06:45;23.90;;;18.97;;
44664;SDS011;30382;48.802;9.388;2022-08-19T04:09:32;21.43;;;19.27;;
44664;SDS011;30382;48.802;9.388;2022-08-19T04:12:17;21.20;;;19.00;;
44664;SDS011;30382;48.802;9.388;2022-08-19T04:15:03;23.03;;;19.83;;
44664;SDS011;30382;48.802;9.388;2022-08-19T04:17:48;21.67;;;19.33;;
44664;SDS011;30382;48.802;9.388;2022-08-19T04:20:38;21.10;;;18.90;;
44664;SDS011;30382;48.802;9.388;2022-08-19T04:23:22;22.27;;;19.87;;
44664;SDS011;30382;48.802;9.388;2022-08-19T04:26:07;21.43;;;19.23;;
44664;SDS011;30382;48.802;9.388;2022-08-19T04:28:51;20.17;;;17.93;;
44664;SDS011;30382;48.802;9.388;2022-08-19T04:31:36;22.67;;;20.10;;
44664;SDS011;30382;48.802;9.388;2022-08-19T04:34:21;23.37;;;20.87;;
44664;SDS011;30382;48.802;9.388;2022-08-19T04:37:08;23.20;;;20.70;;
44664;SDS011;30382;48.802;9.388;2022-08-19T04:39:56;23.67;;;19.93;;
44664;SDS011;30382;48.802;9.388;2022-08-19T04:42:59;22.93;;;20.10;;
44664;SDS011;30382;48.802;9.388;2022-08-19T04:45:45;23.87;;;21.30;;
44664;SDS011;30382;48.802;9.388;2022-08-19T04:48:29;24.77;;;22.17;;
44664;SDS011;30382;48.802;9.388;2022-08-19T04:51:14;23.00;;;20.50;;
44664;SDS011;30382;48.802;9.388;2022-08-19T04:54:00;22.43;;;20.13;;
44664;SDS011;30382;48.802;9.388;2022-08-19T04:56:45;24.60;;;22.10;;
44664;SDS011;30382;48.802;9.388;2022-08-19T04:59:29;24.07;;;21.47;;
44664;SDS011;30382;48.802;9.388;2022-08-19T05:02:14;23.17;;;20.87;;
44664;SDS011;30382;48.802;9.388;2022-08-19T05:04:58;23.53;;;21.13;;
44664;SDS011;30382;48.802;9.388;2022-08-19T05:07:44;23.23;;;20.90;;
44664;SDS011;30382;48.802;9.388;2022-08-19T05:10:29;22.50;;;19.60;;
44664;SDS011;30382;48.802;9.388;2022-08-19T05:13:14;26.17;;;21.80;;
44664;SDS011;30382;48.802;9.388;2022-08-19T05:16:00;26.03;;;22.13;;
44664;SDS011;30382;48.802;9.388;2022-08-19T05:18:45;27.03;;;22.60;;
44664;SDS011;30382;48.802;9.388;2022-08-19T05:21:48;26.47;;;23.50;;
44664;SDS011;30382;48.802;9.388;2022-08-19T05:24:51;23.63;;;21.33;;
44664;SDS011;30382;48.802;9.388;2022-08-19T05:27:35;23.43;;;21.00;;
44664;SDS011;30382;48.802;9.388;2022-08-19T05:30:20;22.83;;;20.40;;
44664;SDS011;30382;48.802;9.388;2022-08-19T05:33:04;23.87;;;20.13;;
44664;SDS011;30382;48.802;9.388;2022-08-19T05:35:48;24.57;;;21.97;;
44664;SDS011;30382;48.802;9.388;2022-08-19T05:38:33;24.67;;;22.07;;
44664;SDS011;30382;48.802;9.388;2022-08-19T05:41:18;25.90;;;23.20;;
44664;SDS011;30382;48.802;9.388;2022-08-19T05:44:04;25.73;;;21.90;;
44664;SDS011;30382;48.802;9.388;2022-08-19T05:46:50;25.80;;;23.10;;
44664;SDS011;30382;48.802;9.388;2022-08-19T05:49:37;26.10;;;23.43;;
44664;SDS011;30382;48.802;9.388;2022-08-19T05:52:21;28.57;;;23.40;;
44664;SDS011;30382;48.802;9.388;2022-08-19T05:55:05;26.60;;;24.00;;
44664;SDS011;30382;48.802;9.388;2022-08-19T05:57:50;23.70;;;21.20;;
44664;SDS011;30382;48.802;9.388;2022-08-19T06:00:35;26.70;;;22.17;;
44664;SDS011;30382;48.802;9.388;2022-08-19T06:03:20;26.97;;;24.13;;
44664;SDS011;30382;48.802;9.388;2022-08-19T06:06:05;26.03;;;23.20;;
44664;SDS011;30382;48.802;9.388;2022-08-19T06:08:49;27.43;;;23.10;;
44664;SDS011;30382;48.802;9.388;2022-08-19T06:11:45;26.17;;;23.40;;
44664;SDS011;30382;48.802;9.388;2022-08-19T06:14:30;25.80;;;23.07;;
44664;SDS011;30382;48.802;9.388;2022-08-19T06:17:15;25.73;;;23.13;;
44664;SDS011;30382;48.802;9.388;2022-08-19T06:19:59;24.60;;;21.87;;
44664;SDS011;30382;48.802;9.388;2022-08-19T06:22:45;24.63;;;22.20;;
44664;SDS011;30382;48.802;9.388;2022-08-19T06:25:30;23.77;;;21.27;;
44664;SDS011;30382;48.802;9.388;2022-08-19T06:28:14;24.93;;;21.67;;
44664;SDS011;30382;48.802;9.388;2022-08-19T06:30:59;26.33;;;23.53;;
44664;SDS011;30382;48.802;9.388;2022-08-19T06:33:49;24.37;;;21.83;;
44664;SDS011;30382;48.802;9.388;2022-08-19T06:36:35;24.20;;;21.80;;
44664;SDS011;30382;48.802;9.388;2022-08-19T06:39:22;26.07;;;23.50;;
44664;SDS011;30382;48.802;9.388;2022-08-19T06:42:07;25.33;;;22.80;;
44664;SDS011;30382;48.802;9.388;2022-08-19T06:44:53;26.50;;;23.70;;
44664;SDS011;30382;48.802;9.388;2022-08-19T06:47:39;28.37;;;25.47;;
44664;SDS011;30382;48.802;9.388;2022-08-19T06:50:23;27.23;;;24.53;;
44664;SDS011;30382;48.802;9.388;2022-08-19T06:53:08;27.60;;;24.80;;
44664;SDS011;30382;48.802;9.388;2022-08-19T06:55:52;25.50;;;22.77;;
44664;SDS011;30382;48.802;9.388;2022-08-19T06:58:44;26.50;;;23.83;;
44664;SDS011;30382;48.802;9.388;2022-08-19T07:01:28;28.20;;;23.90;;
44664;SDS011;30382;48.802;9.388;2022-08-19T07:04:13;27.10;;;24.40;;
44664;SDS011;30382;48.802;9.388;2022-08-19T07:07:01;29.50;;;26.60;;
44664;SDS011;30382;48.802;9.388;2022-08-19T07:09:47;25.93;;;23.50;;
44664;SDS011;30382;48.802;9.388;2022-08-19T07:12:31;28.27;;;25.57;;
44664;SDS011;30382;48.802;9.388;2022-08-19T07:15:18;27.70;;;24.80;;
44664;SDS011;30382;48.802;9.388;2022-08-19T07:18:06;30.23;;;27.00;;
44664;SDS011;30382;48.802;9.388;2022-08-19T07:21:01;28.40;;;25.37;;
44664;SDS011;30382;48.802;9.388;2022-08-19T07:23:45;29.73;;;25.40;;
44664;SDS011;30382;48.802;9.388;2022-08-19T07:26:32;28.33;;;25.43;;
44664;SDS011;30382;48.802;9.388;2022-08-19T07:29:20;26.63;;;24.13;;
44664;SDS011;30382;48.802;9.388;2022-08-19T07:32:06;30.40;;;27.17;;
44664;SDS011;30382;48.802;9.388;2022-08-19T07:34:51;28.00;;;24.90;;
44664;SDS011;30382;48.802;9.388;2022-08-19T07:37:36;26.07;;;23.47;;
44664;SDS011;30382;48.802;9.388;2022-08-19T07:40:21;28.70;;;25.80;;
44664;SDS011;30382;48.802;9.388;2022-08-19T07:43:05;28.23;;;23.83;;
44664;SDS011;30382;48.802;9.388;2022-08-19T07:45:50;29.07;;;26.10;;
44664;SDS011;30382;48.802;9.388;2022-08-19T07:48:34;29.37;;;26.33;;
44664;SDS011;30382;48.802;9.388;2022-08-19T07:51:20;26.53;;;23.83;;
44664;SDS011;30382;48.802;9.388;2022-08-19T07:54:04;28.40;;;24.00;;
44664;SDS011;30382;48.802;9.388;2022-08-19T07:56:48;26.30;;;23.67;;
44664;SDS011;30382;48.802;9.388;2022-08-19T07:59:34;27.90;;;25.00;;
44664;SDS011;30382;48.802;9.388;2022-08-19T08:02:19;33.70;;;26.10;;
44664;SDS011;30382;48.802;9.388;2022-08-19T08:05:04;29.63;;;25.57;;
44664;SDS011;30382;48.802;9.388;2022-08-19T08:08:07;27.00;;;24.23;;
44664;SDS011;30382;48.802;9.388;2022-08-19T08:11:10;28.00;;;25.20;;
44664;SDS011;30382;48.802;9.388;2022-08-19T08:13:55;26.13;;;23.50;;
44664;SDS011;30382;48.802;9.388;2022-08-19T08:16:40;27.30;;;24.47;;
44664;SDS011;30382;48.802;9.388;2022-08-19T08:19:29;26.70;;;23.90;;
44664;SDS011;30382;48.802;9.388;2022-08-19T08:22:15;25.57;;;23.00;;
44664;SDS011;30382;48.802;9.388;2022-08-19T08:25:20;26.50;;;23.80;;
44664;SDS011;30382;48.802;9.388;2022-08-19T08:28:06;26.20;;;23.70;;
44664;SDS011;30382;48.802;9.388;2022-08-19T08:30:58;24.80;;;22.30;;
44664;SDS011;30382;48.802;9.388;2022-08-19T08:33:46;26.60;;;22.50;;
44664;SDS011;30382;48.802;9.388;2022-08-19T08:36:31;23.83;;;21.47;;
44664;SDS011;30382;48.802;9.388;2022-08-19T08:39:18;21.87;;;19.53;;
44664;SDS011;30382;48.802;9.388;2022-08-19T08:42:12;22.87;;;20.60;;
44664;SDS011;30382;48.802;9.388;2022-08-19T08:45:12;22.57;;;20.37;;
44664;SDS011;30382;48.802;9.388;2022-08-19T08:47:57;23.70;;;21.27;;
44664;SDS011;30382;48.802;9.388;2022-08-19T08:50:43;22.17;;;19.60;;
44664;SDS011;30382;48.802;9.388;2022-08-19T08:53:29;22.23;;;20.20;;
44664;SDS011;30382;48.802;9.388;2022-08-19T08:56:16;22.73;;;20.40;;
44664;SDS011;30382;48.802;9.388;2022-08-19T08:59:16;24.53;;;21.70;;
44664;SDS011;30382;48.802;9.388;2022-08-19T09:02:10;22.03;;;19.93;;
44664;SDS011;30382;48.802;9.388;2022-08-19T09:05:01;23.07;;;20.67;;
44664;SDS011;30382;48.802;9.388;2022-08-19T09:07:53;22.37;;;19.80;;
44664;SDS011;30382;48.802;9.388;2022-08-19T09:10:45;35.00;;;21.40;;
44664;SDS011;30382;48.802;9.388;2022-08-19T09:13:37;22.27;;;20.17;;
44664;SDS011;30382;48.802;9.388;2022-08-19T09:16:28;23.97;;;21.67;;
44664;SDS011;30382;48.802;9.388;2022-08-19T09:19:14;23.47;;;20.67;;
44664;SDS011;30382;48.802;9.388;2022-08-19T09:22:00;22.47;;;20.17;;
44664;SDS011;30382;48.802;9.388;2022-08-19T09:24:44;21.97;;;19.90;;
44664;SDS011;30382;48.802;9.388;2022-08-19T09:27:29;25.23;;;21.00;;
44664;SDS011;30382;48.802;9.388;2022-08-19T09:30:14;23.83;;;21.50;;
44664;SDS011;30382;48.802;9.388;2022-08-19T09:32:59;23.63;;;21.07;;
44664;SDS011;30382;48.802;9.388;2022-08-19T09:35:45;23.87;;;19.27;;
44664;SDS011;30382;48.802;9.388;2022-08-19T09:38:30;23.07;;;20.80;;
44664;SDS011;30382;48.802;9.388;2022-08-19T09:41:16;25.20;;;22.50;;
44664;SDS011;30382;48.802;9.388;2022-08-19T09:44:00;22.67;;;20.23;;
44664;SDS011;30382;48.802;9.388;2022-08-19T09:46:45;23.10;;;20.23;;
44664;SDS011;30382;48.802;9.388;2022-08-19T09:49:31;22.87;;;20.47;;
44664;SDS011;30382;48.802;9.388;2022-08-19T09:52:15;25.90;;;23.30;;
44664;SDS011;30382;48.802;9.388;2022-08-19T09:55:00;23.97;;;21.57;;
44664;SDS011;30382;48.802;9.388;2022-08-19T09:57:44;21.20;;;18.90;;
44664;SDS011;30382;48.802;9.388;2022-08-19T10:00:29;23.13;;;20.90;;
44664;SDS011;30382;48.802;9.388;2022-08-19T10:03:14;24.90;;;22.23;;
44664;SDS011;30382;48.802;9.388;2022-08-19T10:05:59;22.73;;;20.40;;
44664;SDS011;30382;48.802;9.388;2022-08-19T10:08:43;22.33;;;20.23;;
44664;SDS011;30382;48.802;9.388;2022-08-19T10:11:28;22.53;;;20.23;;
44664;SDS011;30382;48.802;9.388;2022-08-19T10:14:13;24.77;;;22.50;;
44664;SDS011;30382;48.802;9.388;2022-08-19T10:16:58;24.70;;;22.10;;
44664;SDS011;30382;48.802;9.388;2022-08-19T10:19:44;25.03;;;22.43;;
44664;SDS011;30382;48.802;9.388;2022-08-19T10:22:29;23.43;;;21.10;;
44664;SDS011;30382;48.802;9.388;2022-08-19T10:25:13;22.90;;;20.57;;
44664;SDS011;30382;48.802;9.388;2022-08-19T10:27:58;23.90;;;21.17;;
44664;SDS011;30382;48.802;9.388;2022-08-19T10:30:42;24.67;;;22.10;;
44664;SDS011;30382;48.802;9.388;2022-08-19T10:33:26;25.87;;;23.27;;
44664;SDS011;30382;48.802;9.388;2022-08-19T10:36:13;26.20;;;23.37;;
44664;SDS011;30382;48.802;9.388;2022-08-19T10:38:59;23.90;;;21.60;;
44664;SDS011;30382;48.802;9.388;2022-08-19T10:41:45;23.60;;;21.10;;
44664;SDS011;30382;48.802;9.388;2022-08-19T10:44:29;25.70;;;23.10;;
44664;SDS011;30382;48.802;9.388;2022-08-19T10:47:14;25.13;;;21.67;;
44664;SDS011;30382;48.802;9.388;2022-08-19T10:49:59;23.60;;;21.30;;
44664;SDS011;30382;48.802;9.388;2022-08-19T10:53:03;23.00;;;20.80;;
44664;SDS011;30382;48.802;9.388;2022-08-19T10:55:48;23.50;;;21.00;;
44664;SDS011;30382;48.802;9.388;2022-08-19T10:58:51;23.90;;;21.10;;
44664;SDS011;30382;48.802;9.388;2022-08-19T11:01:36;23.83;;;21.37;;
44664;SDS011;30382;48.802;9.388;2022-08-19T11:04:21;25.00;;;22.27;;
44664;SDS011;30382;48.802;9.388;2022-08-19T11:07:06;23.23;;;20.83;;
44664;SDS011;30382;48.802;9.388;2022-08-19T11:09:51;25.40;;;22.50;;
44664;SDS011;30382;48.802;9.388;2022-08-19T11:12:38;25.57;;;23.13;;
44664;SDS011;30382;48.802;9.388;2022-08-19T11:15:23;24.03;;;21.43;;
44664;SDS011;30382;48.802;9.388;2022-08-19T11:18:08;25.10;;;22.60;;
44664;SDS011;30382;48.802;9.388;2022-08-19T11:20:53;22.93;;;20.67;;
44664;SDS011;30382;48.802;9.388;2022-08-19T11:23:37;24.70;;;22.20;;
44664;SDS011;30382;48.802;9.388;2022-08-19T11:26:22;25.03;;;22.73;;
44664;SDS011;30382;48.802;9.388;2022-08-19T11:29:07;22.57;;;20.37;;
44664;SDS011;30382;48.802;9.388;2022-08-19T11:31:55;25.73;;;23.10;;
44664;SDS011;30382;48.802;9.388;2022-08-19T11:34:39;23.60;;;21.10;;
44664;SDS011;30382;48.802;9.388;2022-08-19T11:37:24;26.90;;;22.60;;
44664;SDS011;30382;48.802;9.388;2022-08-19T11:40:08;24.90;;;22.30;;
44664;SDS011;30382;48.802;9.388;2022-08-19T11:42:53;24.83;;;22.43;;
44664;SDS011;30382;48.802;9.388;2022-08-19T11:45:40;25.50;;;22.90;;
44664;SDS011;30382;48.802;9.388;2022-08-19T11:48:25;23.57;;;21.37;;
44664;SDS011;30382;48.802;9.388;2022-08-19T11:51:11;24.97;;;22.37;;
44664;SDS011;30382;48.802;9.388;2022-08-19T11:53:56;22.57;;;20.30;;
44664;SDS011;30382;48.802;9.388;2022-08-19T11:56:41;23.77;;;21.00;;
44664;SDS011;30382;48.802;9.388;2022-08-19T11:59:26;26.23;;;23.67;;
44664;SDS011;30382;48.802;9.388;2022-08-19T12:02:11;26.00;;;23.00;;
44664;SDS011;30382;48.802;9.388;2022-08-19T12:04:55;28.23;;;23.70;;
44664;SDS011;30382;48.802;9.388;2022-08-19T12:07:40;26.17;;;23.47;;
44664;SDS011;30382;48.802;9.388;2022-08-19T12:10:25;25.97;;;23.20;;
44664;SDS011;30382;48.802;9.388;2022-08-19T12:13:09;24.13;;;21.73;;
44664;SDS011;30382;48.802;9.388;2022-08-19T12:15:54;25.33;;;22.77;;
44664;SDS011;30382;48.802;9.388;2022-08-19T12:18:39;24.90;;;21.93;;
44664;SDS011;30382;48.802;9.388;2022-08-19T12:21:26;23.60;;;21.30;;
44664;SDS011;30382;48.802;9.388;2022-08-19T12:24:12;25.10;;;22.50;;
44664;SDS011;30382;48.802;9.388;2022-08-19T12:26:57;28.30;;;23.17;;
44664;SDS011;30382;48.802;9.388;2022-08-19T12:29:42;25.60;;;23.20;;
44664;SDS011;30382;48.802;9.388;2022-08-19T12:32:27;26.13;;;23.67;;
44664;SDS011;30382;48.802;9.388;2022-08-19T12:35:11;25.73;;;23.00;;
44664;SDS011;30382;48.802;9.388;2022-08-19T12:37:56;24.07;;;21.50;;
44664;SDS011;30382;48.802;9.388;2022-08-19T12:40:40;26.97;;;24.20;;
44664;SDS011;30382;48.802;9.388;2022-08-19T12:43:24;28.47;;;25.53;;
44664;SDS011;30382;48.802;9.388;2022-08-19T12:46:09;27.10;;;24.40;;
44664;SDS011;30382;48.802;9.388;2022-08-19T12:48:54;27.93;;;25.03;;
44664;SDS011;30382;48.802;9.388;2022-08-19T12:51:41;25.10;;;22.70;;
44664;SDS011;30382;48.802;9.388;2022-08-19T12:54:25;26.90;;;23.40;;
44664;SDS011;30382;48.802;9.388;2022-08-19T12:57:10;26.10;;;23.20;;
44664;SDS011;30382;48.802;9.388;2022-08-19T12:59:55;28.43;;;24.60;;
44664;SDS011;30382;48.802;9.388;2022-08-19T13:02:40;25.77;;;23.20;;
44664;SDS011;30382;48.802;9.388;2022-08-19T13:05:26;25.00;;;22.50;;
44664;SDS011;30382;48.802;9.388;2022-08-19T13:08:11;25.23;;;22.63;;
44664;SDS011;30382;48.802;9.388;2022-08-19T13:10:55;26.30;;;23.70;;
44664;SDS011;30382;48.802;9.388;2022-08-19T13:13:40;25.97;;;23.37;;
44664;SDS011;30382;48.802;9.388;2022-08-19T13:16:25;26.70;;;24.00;;
44664;SDS011;30382;48.802;9.388;2022-08-19T13:19:11;26.70;;;24.20;;
44664;SDS011;30382;48.802;9.388;2022-08-19T13:21:57;27.97;;;23.50;;
44664;SDS011;30382;48.802;9.388;2022-08-19T13:24:42;24.73;;;22.33;;
44664;SDS011;30382;48.802;9.388;2022-08-19T13:27:26;28.37;;;25.47;;
44664;SDS011;30382;48.802;9.388;2022-08-19T13:30:13;25.30;;;22.77;;
44664;SDS011;30382;48.802;9.388;2022-08-19T13:33:16;26.13;;;23.47;;
44664;SDS011;30382;48.802;9.388;2022-08-19T13:36:01;27.63;;;24.20;;
44664;SDS011;30382;48.802;9.388;2022-08-19T13:38:45;24.83;;;22.33;;
44664;SDS011;30382;48.802;9.388;2022-08-19T13:41:29;25.17;;;22.60;;
44664;SDS011;30382;48.802;9.388;2022-08-19T13:44:15;25.87;;;23.17;;
44664;SDS011;30382;48.802;9.388;2022-08-19T13:47:00;29.43;;;26.33;;
44664;SDS011;30382;48.802;9.388;2022-08-19T13:49:45;25.90;;;23.30;;
44664;SDS011;30382;48.802;9.388;2022-08-19T13:52:29;27.07;;;24.17;;
44664;SDS011;30382;48.802;9.388;2022-08-19T13:55:14;27.17;;;24.47;;
44664;SDS011;30382;48.802;9.388;2022-08-19T13:57:59;29.03;;;26.07;;
44664;SDS011;30382;48.802;9.388;2022-08-19T14:00:46;26.77;;;24.10;;
44664;SDS011;30382;48.802;9.388;2022-08-19T14:03:31;25.33;;;22.90;;
44664;SDS011;30382;48.802;9.388;2022-08-19T14:06:15;28.60;;;25.63;;
44664;SDS011;30382;48.802;9.388;2022-08-19T14:09:00;26.53;;;23.67;;
44664;SDS011;30382;48.802;9.388;2022-08-19T14:11:46;25.53;;;22.87;;
44664;SDS011;30382;48.802;9.388;2022-08-19T14:14:30;27.10;;;24.30;;
44664;SDS011;30382;48.802;9.388;2022-08-19T14:17:15;25.90;;;23.20;;
44664;SDS011;30382;48.802;9.388;2022-08-19T14:19:59;26.37;;;23.90;;
44664;SDS011;30382;48.802;9.388;2022-08-19T14:22:53;25.10;;;22.60;;
44664;SDS011;30382;48.802;9.388;2022-08-19T14:25:38;23.60;;;21.20;;
44664;SDS011;30382;48.802;9.388;2022-08-19T14:28:22;24.47;;;22.03;;
44664;SDS011;30382;48.802;9.388;2022-08-19T14:31:16;25.90;;;23.20;;
44664;SDS011;30382;48.802;9.388;2022-08-19T14:34:03;25.30;;;22.80;;
44664;SDS011;30382;48.802;9.388;2022-08-19T14:36:47;24.30;;;21.80;;
44664;SDS011;30382;48.802;9.388;2022-08-19T14:39:31;24.30;;;21.90;;
44664;SDS011;30382;48.802;9.388;2022-08-19T14:42:16;26.30;;;23.50;;
44664;SDS011;30382;48.802;9.388;2022-08-19T14:45:00;26.30;;;23.57;;
44664;SDS011;30382;48.802;9.388;2022-08-19T14:47:44;27.10;;;23.37;;
44664;SDS011;30382;48.802;9.388;2022-08-19T14:50:29;24.63;;;22.10;;
44664;SDS011;30382;48.802;9.388;2022-08-19T14:53:13;27.10;;;24.40;;
44664;SDS011;30382;48.802;9.388;2022-08-19T14:56:00;26.07;;;23.47;;
44664;SDS011;30382;48.802;9.388;2022-08-19T14:58:44;25.60;;;23.10;;
44664;SDS011;30382;48.802;9.388;2022-08-19T15:01:28;27.53;;;24.60;;
44664;SDS011;30382;48.802;9.388;2022-08-19T15:04:13;27.63;;;24.80;;
44664;SDS011;30382;48.802;9.388;2022-08-19T15:06:57;27.30;;;24.70;;
44664;SDS011;30382;48.802;9.388;2022-08-19T15:09:41;26.53;;;23.93;;
44664;SDS011;30382;48.802;9.388;2022-08-19T15:12:25;28.53;;;25.73;;
44664;SDS011;30382;48.802;9.388;2022-08-19T15:15:11;28.53;;;25.50;;
44664;SDS011;30382;48.802;9.388;2022-08-19T15:17:58;28.93;;;25.87;;
44664;SDS011;30382;48.802;9.388;2022-08-19T15:20:47;27.90;;;24.93;;
44664;SDS011;30382;48.802;9.388;2022-08-19T15:23:31;28.17;;;25.30;;
44664;SDS011;30382;48.802;9.388;2022-08-19T15:26:16;28.83;;;25.77;;
44664;SDS011;30382;48.802;9.388;2022-08-19T15:29:02;27.03;;;24.20;;
44664;SDS011;30382;48.802;9.388;2022-08-19T15:31:47;26.83;;;24.23;;
44664;SDS011;30382;48.802;9.388;2022-08-19T15:34:31;27.07;;;24.20;;
44664;SDS011;30382;48.802;9.388;2022-08-19T15:37:15;27.40;;;24.70;;
44664;SDS011;30382;48.802;9.388;2022-08-19T15:40:00;28.87;;;26.17;;
44664;SDS011;30382;48.802;9.388;2022-08-19T15:42:45;29.80;;;24.60;;
44664;SDS011;30382;48.802;9.388;2022-08-19T15:45:30;25.67;;;23.07;;
44664;SDS011;30382;48.802;9.388;2022-08-19T15:48:17;23.13;;;20.83;;
44664;SDS011;30382;48.802;9.388;2022-08-19T15:51:01;24.33;;;21.87;;
44664;SDS011;30382;48.802;9.388;2022-08-19T15:53:46;26.70;;;23.40;;
44664;SDS011;30382;48.802;9.388;2022-08-19T15:56:30;25.87;;;23.47;;
44664;SDS011;30382;48.802;9.388;2022-08-19T15:59:50;24.90;;;22.40;;
44664;SDS011;30382;48.802;9.388;2022-08-19T16:02:52;26.13;;;23.23;;
44664;SDS011;30382;48.802;9.388;2022-08-19T16:05:55;25.17;;;22.67;;
44664;SDS011;30382;48.802;9.388;2022-08-19T16:09:00;25.40;;;22.80;;
44664;SDS011;30382;48.802;9.388;2022-08-19T16:11:45;26.53;;;23.20;;